sensor_id;sensor_type;location;lat;lon;timestamp;pressure;altitude;pressure_sealevel;temperature;humidity
65997;BME280;52765;52.258;21.052;2023-08-31T00:01:31;99673.50;;;17.01;100.00
65997;BME280;52765;52.258;21.052;2023-08-31T00:03:58;99670.38;;;16.97;100.00
65997;BME280;52765;52.258;21.052;2023-08-31T00:06:24;99676.44;;;16.99;100.00
65997;BME280;52765;52.258;21.052;2023-08-31T00:08:50;99673.50;;;17.01;100.00
65997;BME280;52765;52.258;21.052;2023-08-31T00:11:16;99681.84;;;17.06;100.00
65997;BME280;52765;52.258;21.052;2023-08-31T00:13:41;99682.03;;;17.11;100.00
65997;BME280;52765;52.258;21.052;2023-08-31T00:16:07;99675.94;;;17.16;100.00
65997;BME280;52765;52.258;21.052;2023-08-31T00:18:35;99670.91;;;17.19;100.00
65997;BME280;52765;52.258;21.052;2023-08-31T00:21:01;99678.25;;;17.19;100.00
65997;BME280;52765;52.258;21.052;2023-08-31T00:23:28;99680.97;;;17.19;100.00
65997;BME280;52765;52.258;21.052;2023-08-31T00:25:53;99676.94;;;17.22;100.00
65997;BME280;52765;52.258;21.052;2023-08-31T00:28:19;99682.34;;;17.28;100.00
65997;BME280;52765;52.258;21.052;2023-08-31T00:30:45;99676.78;;;17.16;100.00
65997;BME280;52765;52.258;21.052;2023-08-31T00:33:12;99675.34;;;17.14;100.00
65997;BME280;52765;52.258;21.052;2023-08-31T00:35:37;99670.31;;;17.11;100.00
65997;BME280;52765;52.258;21.052;2023-08-31T00:38:03;99676.19;;;17.08;100.00
65997;BME280;52765;52.258;21.052;2023-08-31T00:40:30;99670.34;;;17.04;100.00
65997;BME280;52765;52.258;21.052;2023-08-31T00:42:56;99685.00;;;17.03;100.00
65997;BME280;52765;52.258;21.052;2023-08-31T00:45:22;99672.47;;;17.02;100.00
65997;BME280;52765;52.258;21.052;2023-08-31T00:47:48;99675.38;;;17.07;100.00
65997;BME280;52765;52.258;21.052;2023-08-31T00:50:15;99674.94;;;17.04;100.00
65997;BME280;52765;52.258;21.052;2023-08-31T00:52:41;99676.41;;;17.06;100.00
65997;BME280;52765;52.258;21.052;2023-08-31T00:55:10;99672.84;;;17.06;100.00
65997;BME280;52765;52.258;21.052;2023-08-31T00:57:35;99668.84;;;17.08;100.00
65997;BME280;52765;52.258;21.052;2023-08-31T01:00:01;99669.50;;;17.04;100.00
65997;BME280;52765;52.258;21.052;2023-08-31T01:05:36;99671.78;;;17.07;100.00
65997;BME280;52765;52.258;21.052;2023-08-31T01:14:01;99673.47;;;17.08;100.00
65997;BME280;52765;52.258;21.052;2023-08-31T01:16:33;99680.38;;;17.10;100.00
65997;BME280;52765;52.258;21.052;2023-08-31T01:19:02;99681.44;;;17.02;100.00
65997;BME280;52765;52.258;21.052;2023-08-31T01:21:34;99681.91;;;16.86;100.00
65997;BME280;52765;52.258;21.052;2023-08-31T01:24:03;99686.31;;;16.80;100.00
65997;BME280;52765;52.258;21.052;2023-08-31T01:26:29;99681.94;;;16.66;100.00
65997;BME280;52765;52.258;21.052;2023-08-31T01:28:55;99684.88;;;16.58;100.00
65997;BME280;52765;52.258;21.052;2023-08-31T01:31:21;99687.81;;;16.63;100.00
65997;BME280;52765;52.258;21.052;2023-08-31T01:33:47;99690.72;;;16.68;100.00
65997;BME280;52765;52.258;21.052;2023-08-31T01:36:29;99688.41;;;16.65;100.00
65997;BME280;52765;52.258;21.052;2023-08-31T01:39:22;99683.41;;;16.69;100.00
65997;BME280;52765;52.258;21.052;2023-08-31T01:41:50;99685.47;;;16.73;100.00
65997;BME280;52765;52.258;21.052;2023-08-31T01:44:17;99687.78;;;16.76;100.00
65997;BME280;52765;52.258;21.052;2023-08-31T01:46:51;99686.53;;;16.79;100.00
65997;BME280;52765;52.258;21.052;2023-08-31T01:49:16;99686.13;;;16.75;100.00
65997;BME280;52765;52.258;21.052;2023-08-31T01:51:42;99688.84;;;16.75;100.00
65997;BME280;52765;52.258;21.052;2023-08-31T01:54:07;99683.63;;;16.67;100.00
65997;BME280;52765;52.258;21.052;2023-08-31T01:56:33;99682.16;;;16.64;100.00
65997;BME280;52765;52.258;21.052;2023-08-31T01:58:58;99688.22;;;16.60;100.00
65997;BME280;52765;52.258;21.052;2023-08-31T02:01:23;99692.63;;;16.54;100.00
65997;BME280;52765;52.258;21.052;2023-08-31T02:03:49;99697.66;;;16.51;100.00
65997;BME280;52765;52.258;21.052;2023-08-31T02:06:14;99690.34;;;16.44;100.00
65997;BME280;52765;52.258;21.052;2023-08-31T02:08:40;99689.09;;;16.47;100.00
65997;BME280;52765;52.258;21.052;2023-08-31T02:11:05;99695.16;;;16.49;100.00
65997;BME280;52765;52.258;21.052;2023-08-31T02:13:31;99697.69;;;16.37;100.00
65997;BME280;52765;52.258;21.052;2023-08-31T02:15:56;99702.94;;;16.32;100.00
65997;BME280;52765;52.258;21.052;2023-08-31T02:18:22;99694.34;;;16.28;100.00
65997;BME280;52765;52.258;21.052;2023-08-31T02:20:47;99695.81;;;16.31;100.00
65997;BME280;52765;52.258;21.052;2023-08-31T02:23:12;99690.38;;;16.31;100.00
65997;BME280;52765;52.258;21.052;2023-08-31T02:25:38;99706.25;;;16.34;100.00
65997;BME280;52765;52.258;21.052;2023-08-31T02:28:04;99698.94;;;16.28;100.00
65997;BME280;52765;52.258;21.052;2023-08-31T02:30:30;99698.72;;;16.23;100.00
65997;BME280;52765;52.258;21.052;2023-08-31T02:32:55;99701.44;;;16.23;100.00
65997;BME280;52765;52.258;21.052;2023-08-31T02:35:21;99706.47;;;16.26;100.00
65997;BME280;52765;52.258;21.052;2023-08-31T02:37:46;99703.56;;;16.21;100.00
65997;BME280;52765;52.258;21.052;2023-08-31T02:40:12;99706.88;;;16.23;100.00
65997;BME280;52765;52.258;21.052;2023-08-31T02:42:37;99701.66;;;16.21;100.00
65997;BME280;52765;52.258;21.052;2023-08-31T02:45:03;99701.25;;;16.18;100.00
65997;BME280;52765;52.258;21.052;2023-08-31T02:47:29;99698.31;;;16.19;100.00
65997;BME280;52765;52.258;21.052;2023-08-31T02:49:54;99711.09;;;16.19;100.00
65997;BME280;52765;52.258;21.052;2023-08-31T02:52:20;99700.41;;;16.17;100.00
65997;BME280;52765;52.258;21.052;2023-08-31T02:54:45;99702.28;;;16.17;100.00
65997;BME280;52765;52.258;21.052;2023-08-31T02:57:11;99706.28;;;16.21;100.00
65997;BME280;52765;52.258;21.052;2023-08-31T02:59:39;99705.66;;;16.25;100.00
65997;BME280;52765;52.258;21.052;2023-08-31T03:02:06;99704.78;;;16.32;100.00
65997;BME280;52765;52.258;21.052;2023-08-31T03:04:31;99704.97;;;16.37;100.00
65997;BME280;52765;52.258;21.052;2023-08-31T03:06:57;99700.81;;;16.41;100.00
65997;BME280;52765;52.258;21.052;2023-08-31T03:09:22;99700.19;;;16.39;100.00
65997;BME280;52765;52.258;21.052;2023-08-31T03:11:48;99709.81;;;16.35;100.00
65997;BME280;52765;52.258;21.052;2023-08-31T03:14:13;99725.69;;;16.31;100.00
65997;BME280;52765;52.258;21.052;2023-08-31T03:16:38;99718.16;;;16.26;100.00
65997;BME280;52765;52.258;21.052;2023-08-31T03:19:04;99724.66;;;16.25;100.00
65997;BME280;52765;52.258;21.052;2023-08-31T03:21:30;99720.88;;;16.13;100.00
65997;BME280;52765;52.258;21.052;2023-08-31T03:23:56;99731.13;;;16.18;100.00
65997;BME280;52765;52.258;21.052;2023-08-31T03:26:21;99731.34;;;16.23;100.00
65997;BME280;52765;52.258;21.052;2023-08-31T03:28:46;99728.41;;;16.24;100.00
65997;BME280;52765;52.258;21.052;2023-08-31T03:31:12;99731.56;;;16.21;100.00
65997;BME280;52765;52.258;21.052;2023-08-31T03:33:37;99724.88;;;16.11;100.00
65997;BME280;52765;52.258;21.052;2023-08-31T03:36:03;99724.22;;;16.02;100.00
65997;BME280;52765;52.258;21.052;2023-08-31T03:38:33;99720.88;;;16.00;100.00
65997;BME280;52765;52.258;21.052;2023-08-31T03:41:02;99738.44;;;15.97;100.00
65997;BME280;52765;52.258;21.052;2023-08-31T03:43:28;99733.22;;;16.02;100.00
65997;BME280;52765;52.258;21.052;2023-08-31T03:45:54;99734.25;;;16.01;100.00
65997;BME280;52765;52.258;21.052;2023-08-31T03:48:24;99742.81;;;15.91;100.00
65997;BME280;52765;52.258;21.052;2023-08-31T03:50:50;99743.22;;;15.95;100.00
65997;BME280;52765;52.258;21.052;2023-08-31T03:53:16;99742.19;;;15.96;100.00
65997;BME280;52765;52.258;21.052;2023-08-31T03:55:42;99746.16;;;16.00;100.00
65997;BME280;52765;52.258;21.052;2023-08-31T03:58:07;99749.72;;;16.01;100.00
65997;BME280;52765;52.258;21.052;2023-08-31T04:00:33;99740.31;;;16.03;100.00
65997;BME280;52765;52.258;21.052;2023-08-31T04:02:58;99748.66;;;16.08;100.00
65997;BME280;52765;52.258;21.052;2023-08-31T04:05:24;99754.31;;;16.07;100.00
65997;BME280;52765;52.258;21.052;2023-08-31T04:07:49;99754.31;;;16.00;100.00
65997;BME280;52765;52.258;21.052;2023-08-31T04:10:14;99751.81;;;15.92;100.00
65997;BME280;52765;52.258;21.052;2023-08-31T04:12:40;99747.84;;;15.95;100.00
65997;BME280;52765;52.258;21.052;2023-08-31T04:15:08;99736.97;;;16.01;100.00
65997;BME280;52765;52.258;21.052;2023-08-31T04:17:34;99744.50;;;15.99;100.00
65997;BME280;52765;52.258;21.052;2023-08-31T04:19:59;99737.38;;;15.85;100.00
65997;BME280;52765;52.258;21.052;2023-08-31T04:22:25;99731.09;;;15.78;100.00
65997;BME280;52765;52.258;21.052;2023-08-31T04:24:52;99739.47;;;15.83;100.00
65997;BME280;52765;52.258;21.052;2023-08-31T04:27:18;99741.78;;;15.93;100.00
65997;BME280;52765;52.258;21.052;2023-08-31T04:29:43;99743.03;;;15.97;100.00
65997;BME280;52765;52.258;21.052;2023-08-31T04:32:08;99752.03;;;15.97;100.00
65997;BME280;52765;52.258;21.052;2023-08-31T04:34:34;99745.75;;;15.97;100.00
65997;BME280;52765;52.258;21.052;2023-08-31T04:37:00;99750.97;;;16.05;100.00
65997;BME280;52765;52.258;21.052;2023-08-31T04:39:26;99752.03;;;16.04;100.00
65997;BME280;52765;52.258;21.052;2023-08-31T04:41:52;99746.41;;;16.12;100.00
65997;BME280;52765;52.258;21.052;2023-08-31T04:44:17;99755.19;;;16.21;100.00
65997;BME280;52765;52.258;21.052;2023-08-31T04:46:42;99763.34;;;16.21;100.00
65997;BME280;52765;52.258;21.052;2023-08-31T04:49:08;99763.75;;;16.24;100.00
65997;BME280;52765;52.258;21.052;2023-08-31T04:51:36;99764.56;;;16.38;100.00
65997;BME280;52765;52.258;21.052;2023-08-31T04:54:07;99756.84;;;16.42;100.00
65997;BME280;52765;52.258;21.052;2023-08-31T04:56:33;99763.94;;;16.50;100.00
65997;BME280;52765;52.258;21.052;2023-08-31T04:58:58;99763.13;;;16.49;100.00
65997;BME280;52765;52.258;21.052;2023-08-31T05:01:24;99779.66;;;16.41;100.00
65997;BME280;52765;52.258;21.052;2023-08-31T05:03:50;99770.44;;;16.42;100.00
65997;BME280;52765;52.258;21.052;2023-08-31T05:06:15;99777.53;;;16.50;100.00
65997;BME280;52765;52.258;21.052;2023-08-31T05:08:40;99781.75;;;16.59;100.00
65997;BME280;52765;52.258;21.052;2023-08-31T05:11:06;99788.22;;;16.64;100.00
65997;BME280;52765;52.258;21.052;2023-08-31T05:13:32;99788.19;;;16.71;100.00
65997;BME280;52765;52.258;21.052;2023-08-31T05:16:03;99797.84;;;16.74;100.00
65997;BME280;52765;52.258;21.052;2023-08-31T05:18:30;99798.88;;;16.73;100.00
65997;BME280;52765;52.258;21.052;2023-08-31T05:20:56;99792.19;;;16.69;100.00
65997;BME280;52765;52.258;21.052;2023-08-31T05:23:21;99801.41;;;16.88;100.00
65997;BME280;52765;52.258;21.052;2023-08-31T05:25:46;99790.69;;;17.06;100.00
65997;BME280;52765;52.258;21.052;2023-08-31T05:28:12;99792.53;;;17.19;100.00
65997;BME280;52765;52.258;21.052;2023-08-31T05:30:47;99796.72;;;17.15;100.00
65997;BME280;52765;52.258;21.052;2023-08-31T05:33:12;99795.91;;;17.08;100.00
65997;BME280;52765;52.258;21.052;2023-08-31T05:35:40;99799.69;;;17.07;100.00
65997;BME280;52765;52.258;21.052;2023-08-31T05:38:06;99806.38;;;17.17;100.00
65997;BME280;52765;52.258;21.052;2023-08-31T05:40:31;99812.81;;;17.30;100.00
65997;BME280;52765;52.258;21.052;2023-08-31T05:42:57;99813.84;;;17.42;100.00
65997;BME280;52765;52.258;21.052;2023-08-31T05:45:22;99811.09;;;17.49;100.00
65997;BME280;52765;52.258;21.052;2023-08-31T05:47:48;99816.75;;;17.47;100.00
65997;BME280;52765;52.258;21.052;2023-08-31T05:50:14;99820.06;;;17.49;100.00
65997;BME280;52765;52.258;21.052;2023-08-31T05:52:39;99821.75;;;17.50;100.00
65997;BME280;52765;52.258;21.052;2023-08-31T05:55:09;99829.34;;;17.28;100.00
65997;BME280;52765;52.258;21.052;2023-08-31T05:57:35;99824.59;;;17.17;100.00
65997;BME280;52765;52.258;21.052;2023-08-31T06:00:00;99839.03;;;17.04;100.00
65997;BME280;52765;52.258;21.052;2023-08-31T06:02:26;99837.38;;;17.03;100.00
65997;BME280;52765;52.258;21.052;2023-08-31T06:04:51;99839.03;;;17.11;100.00
65997;BME280;52765;52.258;21.052;2023-08-31T06:07:17;99839.63;;;17.19;100.00
65997;BME280;52765;52.258;21.052;2023-08-31T06:09:43;99835.88;;;17.20;99.48
65997;BME280;52765;52.258;21.052;2023-08-31T06:12:08;99837.97;;;17.05;100.00
65997;BME280;52765;52.258;21.052;2023-08-31T06:14:34;99845.72;;;17.08;100.00
65997;BME280;52765;52.258;21.052;2023-08-31T06:16:59;99840.50;;;16.80;100.00
65997;BME280;52765;52.258;21.052;2023-08-31T06:19:25;99847.63;;;16.74;100.00
65997;BME280;52765;52.258;21.052;2023-08-31T06:21:50;99841.97;;;16.69;100.00
65997;BME280;52765;52.258;21.052;2023-08-31T06:24:16;99854.09;;;16.67;100.00
65997;BME280;52765;52.258;21.052;2023-08-31T06:26:41;99846.59;;;16.75;100.00
65997;BME280;52765;52.258;21.052;2023-08-31T06:29:07;99845.34;;;16.91;100.00
65997;BME280;52765;52.258;21.052;2023-08-31T06:31:36;99852.03;;;16.89;100.00
65997;BME280;52765;52.258;21.052;2023-08-31T06:34:01;99843.00;;;17.01;100.00
65997;BME280;52765;52.258;21.052;2023-08-31T06:36:27;99841.34;;;17.07;100.00
65997;BME280;52765;52.258;21.052;2023-08-31T06:38:53;99842.31;;;17.39;98.53
65997;BME280;52765;52.258;21.052;2023-08-31T06:41:18;99841.44;;;17.52;97.33
65997;BME280;52765;52.258;21.052;2023-08-31T06:43:43;99856.84;;;17.79;96.75
65997;BME280;52765;52.258;21.052;2023-08-31T06:46:11;99850.13;;;17.81;94.71
65997;BME280;52765;52.258;21.052;2023-08-31T06:48:36;99854.31;;;17.90;95.33
65997;BME280;52765;52.258;21.052;2023-08-31T06:51:02;99866.44;;;17.94;92.76
65997;BME280;52765;52.258;21.052;2023-08-31T06:53:29;99857.56;;;18.06;93.67
65997;BME280;52765;52.258;21.052;2023-08-31T06:55:54;99854.38;;;18.16;92.21
65997;BME280;52765;52.258;21.052;2023-08-31T06:58:20;99863.38;;;18.16;91.77
65997;BME280;52765;52.258;21.052;2023-08-31T07:00:45;99870.16;;;18.07;92.47
65997;BME280;52765;52.258;21.052;2023-08-31T07:03:12;99867.91;;;17.97;93.02
65997;BME280;52765;52.258;21.052;2023-08-31T07:05:42;99864.34;;;17.90;91.82
65997;BME280;52765;52.258;21.052;2023-08-31T07:08:07;99877.75;;;17.85;91.89
65997;BME280;52765;52.258;21.052;2023-08-31T07:10:34;99866.66;;;17.80;92.97
65997;BME280;52765;52.258;21.052;2023-08-31T07:13:02;99870.66;;;17.90;91.97
65997;BME280;52765;52.258;21.052;2023-08-31T07:15:28;99877.28;;;18.01;91.58
65997;BME280;52765;52.258;21.052;2023-08-31T07:17:54;99870.94;;;18.14;90.19
65997;BME280;52765;52.258;21.052;2023-08-31T07:20:19;99868.56;;;18.24;89.12
65997;BME280;52765;52.258;21.052;2023-08-31T07:22:45;99878.31;;;18.14;90.29
65997;BME280;52765;52.258;21.052;2023-08-31T07:25:10;99883.34;;;18.03;89.89
65997;BME280;52765;52.258;21.052;2023-08-31T07:27:37;99885.28;;;17.96;90.99
65997;BME280;52765;52.258;21.052;2023-08-31T07:30:03;99881.09;;;18.00;91.47
65997;BME280;52765;52.258;21.052;2023-08-31T07:32:29;99879.84;;;17.96;90.99
65997;BME280;52765;52.258;21.052;2023-08-31T07:34:55;99874.81;;;17.86;91.84
65997;BME280;52765;52.258;21.052;2023-08-31T07:37:20;99871.09;;;17.81;92.93
65997;BME280;52765;52.258;21.052;2023-08-31T07:39:45;99882.59;;;17.89;93.66
65997;BME280;52765;52.258;21.052;2023-08-31T07:42:11;99883.41;;;17.90;92.16
65997;BME280;52765;52.258;21.052;2023-08-31T07:44:36;99894.94;;;17.99;92.38
65997;BME280;52765;52.258;21.052;2023-08-31T07:47:02;99890.78;;;17.89;92.95
65997;BME280;52765;52.258;21.052;2023-08-31T07:49:28;99886.97;;;17.97;92.14
65997;BME280;52765;52.258;21.052;2023-08-31T07:51:53;99892.59;;;18.02;94.01
65997;BME280;52765;52.258;21.052;2023-08-31T07:54:22;99889.16;;;18.20;92.46
65997;BME280;52765;52.258;21.052;2023-08-31T07:56:48;99898.47;;;18.38;90.91
65997;BME280;52765;52.258;21.052;2023-08-31T07:59:13;99896.28;;;18.53;88.59
65997;BME280;52765;52.258;21.052;2023-08-31T08:01:39;99901.31;;;18.56;83.16
65997;BME280;52765;52.258;21.052;2023-08-31T08:04:06;99896.75;;;18.43;86.03
65997;BME280;52765;52.258;21.052;2023-08-31T08:06:32;99904.50;;;18.46;85.34
65997;BME280;52765;52.258;21.052;2023-08-31T08:08:58;99895.28;;;18.47;83.95
65997;BME280;52765;52.258;21.052;2023-08-31T08:11:25;99899.09;;;18.72;82.59
65997;BME280;52765;52.258;21.052;2023-08-31T08:13:50;99912.81;;;18.97;82.54
65997;BME280;52765;52.258;21.052;2023-08-31T08:16:15;99907.66;;;19.07;80.98
65997;BME280;52765;52.258;21.052;2023-08-31T08:18:41;99907.44;;;19.09;81.04
65997;BME280;52765;52.258;21.052;2023-08-31T08:21:06;99908.28;;;19.09;79.59
65997;BME280;52765;52.258;21.052;2023-08-31T08:23:32;99906.84;;;19.25;75.74
65997;BME280;52765;52.258;21.052;2023-08-31T08:25:57;99908.47;;;19.33;76.30
65997;BME280;52765;52.258;21.052;2023-08-31T08:28:26;99909.78;;;19.30;75.00
65997;BME280;52765;52.258;21.052;2023-08-31T08:30:52;99907.13;;;19.42;73.58
65997;BME280;52765;52.258;21.052;2023-08-31T08:33:17;99905.97;;;19.50;71.59
65997;BME280;52765;52.258;21.052;2023-08-31T08:35:43;99912.66;;;19.54;69.79
65997;BME280;52765;52.258;21.052;2023-08-31T08:38:08;99911.44;;;19.50;70.80
65997;BME280;52765;52.258;21.052;2023-08-31T08:40:34;99922.38;;;19.50;70.38
65997;BME280;52765;52.258;21.052;2023-08-31T08:43:01;99919.50;;;19.63;69.83
65997;BME280;52765;52.258;21.052;2023-08-31T08:45:30;99915.19;;;19.74;69.57
65997;BME280;52765;52.258;21.052;2023-08-31T08:48:01;99932.44;;;19.93;68.83
65997;BME280;52765;52.258;21.052;2023-08-31T08:50:27;99925.31;;;19.92;68.79
65997;BME280;52765;52.258;21.052;2023-08-31T08:52:54;99927.94;;;20.17;67.79
65997;BME280;52765;52.258;21.052;2023-08-31T08:55:19;99924.44;;;20.28;64.41
65997;BME280;52765;52.258;21.052;2023-08-31T08:57:47;99918.38;;;20.38;63.44
65997;BME280;52765;52.258;21.052;2023-08-31T09:00:13;99934.94;;;20.43;63.71
65997;BME280;52765;52.258;21.052;2023-08-31T09:02:38;99923.84;;;20.38;64.28
65997;BME280;52765;52.258;21.052;2023-08-31T09:05:04;99931.13;;;20.44;64.14
65997;BME280;52765;52.258;21.052;2023-08-31T09:07:30;99924.47;;;20.40;65.29
65997;BME280;52765;52.258;21.052;2023-08-31T09:09:59;99926.59;;;20.38;64.73
65997;BME280;52765;52.258;21.052;2023-08-31T09:12:25;99918.00;;;20.34;65.33
65997;BME280;52765;52.258;21.052;2023-08-31T09:15:01;99920.97;;;20.33;64.31
65997;BME280;52765;52.258;21.052;2023-08-31T09:17:37;99931.13;;;20.44;63.81
65997;BME280;52765;52.258;21.052;2023-08-31T09:20:04;99930.09;;;20.45;64.15
65997;BME280;52765;52.258;21.052;2023-08-31T09:22:29;99922.66;;;20.34;65.60
65997;BME280;52765;52.258;21.052;2023-08-31T09:24:55;99927.31;;;20.33;66.66
65997;BME280;52765;52.258;21.052;2023-08-31T09:27:20;99936.94;;;20.36;66.57
65997;BME280;52765;52.258;21.052;2023-08-31T09:29:46;99938.38;;;20.39;67.35
65997;BME280;52765;52.258;21.052;2023-08-31T09:32:18;99940.75;;;20.35;68.04
65997;BME280;52765;52.258;21.052;2023-08-31T09:34:43;99943.47;;;20.35;68.72
65997;BME280;52765;52.258;21.052;2023-08-31T09:37:09;99940.31;;;20.50;69.09
65997;BME280;52765;52.258;21.052;2023-08-31T09:39:41;99948.50;;;20.68;67.22
65997;BME280;52765;52.258;21.052;2023-08-31T09:42:07;99948.81;;;20.91;67.67
65997;BME280;52765;52.258;21.052;2023-08-31T09:44:33;99957.94;;;20.84;65.78
65997;BME280;52765;52.258;21.052;2023-08-31T09:46:59;99966.75;;;20.86;64.63
65997;BME280;52765;52.258;21.052;2023-08-31T09:49:25;99962.81;;;20.82;63.36
65997;BME280;52765;52.258;21.052;2023-08-31T09:51:51;99951.91;;;20.94;63.02
65997;BME280;52765;52.258;21.052;2023-08-31T09:54:19;99967.50;;;20.94;63.88
65997;BME280;52765;52.258;21.052;2023-08-31T09:56:48;99965.81;;;20.93;61.71
65997;BME280;52765;52.258;21.052;2023-08-31T09:59:16;99971.44;;;21.10;61.86
65997;BME280;52765;52.258;21.052;2023-08-31T10:01:45;99968.81;;;21.15;60.89
65997;BME280;52765;52.258;21.052;2023-08-31T10:04:11;99968.38;;;21.30;60.35
65997;BME280;52765;52.258;21.052;2023-08-31T10:06:41;99975.78;;;21.65;59.10
65997;BME280;52765;52.258;21.052;2023-08-31T10:09:07;99974.72;;;21.89;56.98
65997;BME280;52765;52.258;21.052;2023-08-31T10:11:38;99968.69;;;22.16;56.90
65997;BME280;52765;52.258;21.052;2023-08-31T10:14:04;99981.44;;;22.34;55.97
65997;BME280;52765;52.258;21.052;2023-08-31T10:16:32;99977.09;;;22.38;56.13
65997;BME280;52765;52.258;21.052;2023-08-31T10:18:58;99975.22;;;22.27;56.02
65997;BME280;52765;52.258;21.052;2023-08-31T10:21:24;99966.34;;;22.48;55.68
65997;BME280;52765;52.258;21.052;2023-08-31T10:23:50;99979.81;;;22.79;54.32
65997;BME280;52765;52.258;21.052;2023-08-31T10:28:48;99967.03;;;22.56;54.93
65997;BME280;52765;52.258;21.052;2023-08-31T10:31:17;99963.25;;;22.45;55.79
65997;BME280;52765;52.258;21.052;2023-08-31T10:33:47;99967.63;;;22.29;54.36
65997;BME280;52765;52.258;21.052;2023-08-31T10:36:14;99971.34;;;21.99;55.13
65997;BME280;52765;52.258;21.052;2023-08-31T10:38:41;99965.03;;;21.98;55.39
65997;BME280;52765;52.258;21.052;2023-08-31T10:46:32;99962.75;;;22.48;54.04
65997;BME280;52765;52.258;21.052;2023-08-31T10:49:01;99976.53;;;22.24;54.79
65997;BME280;52765;52.258;21.052;2023-08-31T10:51:30;99979.44;;;22.06;55.33
65997;BME280;52765;52.258;21.052;2023-08-31T10:54:24;99992.94;;;21.95;54.90
65997;BME280;52765;52.258;21.052;2023-08-31T10:59:50;99986.13;;;21.98;55.84
65997;BME280;52765;52.258;21.052;2023-08-31T11:02:43;99990.91;;;22.03;55.65
65997;BME280;52765;52.258;21.052;2023-08-31T11:05:12;99985.75;;;22.06;55.71
65997;BME280;52765;52.258;21.052;2023-08-31T11:07:41;99980.63;;;22.10;55.62
65997;BME280;52765;52.258;21.052;2023-08-31T11:10:21;99975.13;;;22.22;55.02
65997;BME280;52765;52.258;21.052;2023-08-31T11:12:51;99977.97;;;22.39;55.58
65997;BME280;52765;52.258;21.052;2023-08-31T11:15:22;99981.09;;;22.59;55.30
65997;BME280;52765;52.258;21.052;2023-08-31T11:17:52;99980.88;;;22.78;54.93
65997;BME280;52765;52.258;21.052;2023-08-31T11:20:19;99978.78;;;22.68;54.26
65997;BME280;52765;52.258;21.052;2023-08-31T11:22:49;99982.44;;;22.57;54.57
65997;BME280;52765;52.258;21.052;2023-08-31T11:25:16;99975.59;;;22.59;55.06
65997;BME280;52765;52.258;21.052;2023-08-31T11:27:42;99974.28;;;22.62;53.73
65997;BME280;52765;52.258;21.052;2023-08-31T11:30:17;99982.44;;;22.57;54.04
65997;BME280;52765;52.258;21.052;2023-08-31T11:32:47;99984.91;;;22.58;54.46
65997;BME280;52765;52.258;21.052;2023-08-31T11:35:14;99988.94;;;22.39;53.21
65997;BME280;52765;52.258;21.052;2023-08-31T11:37:41;99989.78;;;22.27;52.49
65997;BME280;52765;52.258;21.052;2023-08-31T11:40:08;99976.88;;;22.40;52.89
65997;BME280;52765;52.258;21.052;2023-08-31T11:42:34;99974.34;;;22.50;52.66
65997;BME280;52765;52.258;21.052;2023-08-31T11:45:03;99980.41;;;22.81;52.37
65997;BME280;52765;52.258;21.052;2023-08-31T11:47:31;99977.88;;;23.42;51.75
65997;BME280;52765;52.258;21.052;2023-08-31T11:49:58;99984.16;;;23.76;50.42
65997;BME280;52765;52.258;21.052;2023-08-31T11:52:24;99990.81;;;23.80;49.11
65997;BME280;52765;52.258;21.052;2023-08-31T11:54:52;99975.69;;;23.61;49.47
65997;BME280;52765;52.258;21.052;2023-08-31T11:57:19;99983.69;;;23.62;49.57
65997;BME280;52765;52.258;21.052;2023-08-31T11:59:44;99975.19;;;23.64;50.36
65997;BME280;52765;52.258;21.052;2023-08-31T12:02:10;99981.00;;;23.68;49.76
65997;BME280;52765;52.258;21.052;2023-08-31T12:04:43;99971.28;;;23.60;50.46
65997;BME280;52765;52.258;21.052;2023-08-31T12:07:09;99966.81;;;23.93;49.26
65997;BME280;52765;52.258;21.052;2023-08-31T12:09:35;99968.25;;;23.78;49.69
65997;BME280;52765;52.258;21.052;2023-08-31T12:12:01;99977.50;;;23.72;51.44
65997;BME280;52765;52.258;21.052;2023-08-31T12:14:27;99974.94;;;23.82;50.86
65997;BME280;52765;52.258;21.052;2023-08-31T12:17:01;99969.13;;;24.01;50.50
65997;BME280;52765;52.258;21.052;2023-08-31T12:19:29;99969.06;;;23.96;49.21
65997;BME280;52765;52.258;21.052;2023-08-31T12:21:54;99971.34;;;23.82;48.98
65997;BME280;52765;52.258;21.052;2023-08-31T12:24:21;99968.00;;;23.63;49.93
65997;BME280;52765;52.258;21.052;2023-08-31T12:26:47;99965.66;;;23.89;49.08
65997;BME280;52765;52.258;21.052;2023-08-31T12:29:13;99960.34;;;24.26;49.32
65997;BME280;52765;52.258;21.052;2023-08-31T12:31:39;99962.25;;;24.48;48.81
65997;BME280;52765;52.258;21.052;2023-08-31T12:34:05;99945.66;;;24.92;47.99
65997;BME280;52765;52.258;21.052;2023-08-31T12:36:34;99959.84;;;25.11;45.61
65997;BME280;52765;52.258;21.052;2023-08-31T12:39:02;99946.56;;;25.03;44.89
65997;BME280;52765;52.258;21.052;2023-08-31T12:41:31;99946.03;;;25.06;45.65
65997;BME280;52765;52.258;21.052;2023-08-31T12:43:56;99947.09;;;25.00;44.89
65997;BME280;52765;52.258;21.052;2023-08-31T12:46:24;99946.03;;;24.73;46.26
65997;BME280;52765;52.258;21.052;2023-08-31T12:48:49;99941.47;;;24.35;46.28
65997;BME280;52765;52.258;21.052;2023-08-31T12:51:18;99942.81;;;24.32;46.72
65997;BME280;52765;52.258;21.052;2023-08-31T12:53:44;99939.91;;;24.44;47.40
65997;BME280;52765;52.258;21.052;2023-08-31T12:56:10;99943.81;;;24.48;46.88
65997;BME280;52765;52.258;21.052;2023-08-31T12:58:36;99947.13;;;24.72;45.85
65997;BME280;52765;52.258;21.052;2023-08-31T13:01:01;99940.06;;;25.19;45.52
65997;BME280;52765;52.258;21.052;2023-08-31T13:03:27;99931.31;;;25.60;44.62